createdAt,value
2018-08-03T00:00:55.081Z,23.66
2018-08-03T00:01:59.608Z,23.72
2018-08-03T00:03:02.524Z,23.93
2018-08-03T00:04:06.000Z,23.99
2018-08-03T00:05:09.133Z,24.05
2018-08-03T00:06:11.988Z,24.11
2018-08-03T00:07:15.457Z,24.13
2018-08-03T00:08:18.306Z,24.07
2018-08-03T00:09:21.930Z,23.87
2018-08-03T00:10:24.827Z,23.63
2018-08-03T00:11:28.984Z,23.43
2018-08-03T00:12:31.860Z,23.36
2018-08-03T00:13:35.343Z,23.40
2018-08-03T00:14:38.222Z,23.49
2018-08-03T00:15:41.707Z,23.50
2018-08-03T00:16:44.595Z,23.55
2018-08-03T00:17:47.728Z,23.53
2018-08-03T00:18:50.593Z,23.62
2018-08-03T00:19:53.446Z,23.73
2018-08-03T00:20:56.258Z,23.79
2018-08-03T00:21:59.107Z,23.34
2018-08-03T00:23:02.245Z,23.18
2018-08-03T00:24:05.708Z,22.92
2018-08-03T00:25:10.144Z,22.99
2018-08-03T00:26:14.467Z,23.02
2018-08-03T00:27:17.656Z,23.15
2018-08-03T00:28:25.393Z,23.26
2018-08-03T00:29:28.299Z,23.29
2018-08-03T00:30:31.467Z,23.34
2018-08-03T00:31:34.778Z,23.49
2018-08-03T00:32:37.607Z,23.46
2018-08-03T00:33:41.421Z,23.47
2018-08-03T00:34:44.258Z,23.35
2018-08-03T00:35:47.098Z,23.31
2018-08-03T00:36:50.221Z,23.33
2018-08-03T00:37:53.141Z,23.42
2018-08-03T00:38:55.984Z,23.52
2018-08-03T00:39:58.879Z,23.40
2018-08-03T00:41:01.745Z,23.34
2018-08-03T00:42:05.504Z,23.29
2018-08-03T00:43:11.033Z,23.23
2018-08-03T00:44:13.883Z,23.15
2018-08-03T00:45:16.761Z,23.14
2018-08-03T00:46:20.754Z,22.92
2018-08-03T00:47:23.766Z,22.84
2018-08-03T00:48:26.881Z,22.60
2018-08-03T00:49:31.875Z,22.57
2018-08-03T00:50:34.729Z,22.64
2018-08-03T00:51:37.935Z,22.73
2018-08-03T00:52:41.528Z,22.89
2018-08-03T00:53:44.535Z,23.06
2018-08-03T00:54:47.611Z,23.21
2018-08-03T00:55:50.947Z,23.30
2018-08-03T00:56:53.859Z,23.32
2018-08-03T00:57:56.740Z,23.37
2018-08-03T00:58:59.904Z,23.38
2018-08-03T01:00:02.827Z,23.36
2018-08-03T01:01:05.837Z,23.39
2018-08-03T01:02:09.017Z,23.16
2018-08-03T01:03:11.919Z,23.07
2018-08-03T01:04:15.229Z,22.92
2018-08-03T01:05:18.077Z,22.83
2018-08-03T01:06:20.932Z,22.91
2018-08-03T01:07:24.020Z,23.06
2018-08-03T01:08:27.245Z,23.09
2018-08-03T01:09:30.094Z,23.20
2018-08-03T01:10:32.978Z,23.09
2018-08-03T01:11:35.824Z,22.99
2018-08-03T01:12:38.688Z,22.96
2018-08-03T01:13:41.560Z,22.81
2018-08-03T01:14:44.688Z,22.71
2018-08-03T01:15:47.583Z,22.49
2018-08-03T01:16:50.460Z,22.48
2018-08-03T01:17:53.273Z,22.53
2018-08-03T01:18:56.204Z,22.62
2018-08-03T01:19:59.071Z,22.77
2018-08-03T01:21:02.290Z,22.75
2018-08-03T01:22:05.118Z,22.70
2018-08-03T01:23:07.964Z,22.75
2018-08-03T01:24:11.946Z,22.74
2018-08-03T01:25:14.836Z,22.81
2018-08-03T01:26:17.768Z,22.73
2018-08-03T01:27:20.890Z,22.84
2018-08-03T01:28:23.715Z,22.76
2018-08-03T01:29:26.562Z,22.48
2018-08-03T01:30:29.381Z,22.45
2018-08-03T01:31:32.196Z,22.45
2018-08-03T01:32:35.084Z,22.33
2018-08-03T01:33:38.265Z,22.35
2018-08-03T01:34:41.089Z,22.30
2018-08-03T01:35:43.960Z,22.36
2018-08-03T01:36:46.797Z,22.29
2018-08-03T01:37:49.689Z,22.62
2018-08-03T01:38:53.513Z,22.85
2018-08-03T01:39:56.648Z,22.63
2018-08-03T01:40:59.685Z,22.36
2018-08-03T01:42:02.737Z,22.34
2018-08-03T01:43:05.660Z,22.53
2018-08-03T01:44:08.519Z,22.68
2018-08-03T01:45:11.400Z,22.64
2018-08-03T01:46:14.530Z,22.11
2018-08-03T01:47:17.431Z,21.78
2018-08-03T01:48:20.861Z,21.92
2018-08-03T01:49:23.810Z,22.00
2018-08-03T01:50:26.727Z,22.16
2018-08-03T01:51:29.573Z,22.28
2018-08-03T01:52:32.961Z,22.39
2018-08-03T01:53:35.823Z,22.36
2018-08-03T01:54:38.749Z,22.06
2018-08-03T01:55:41.755Z,22.03
2018-08-03T01:56:45.079Z,22.07
2018-08-03T01:57:48.255Z,21.97
2018-08-03T01:58:51.407Z,21.93
2018-08-03T01:59:54.325Z,22.01
2018-08-03T02:00:58.872Z,22.06
2018-08-03T02:02:01.733Z,22.26
2018-08-03T02:03:04.669Z,22.38
2018-08-03T02:04:07.545Z,22.45
2018-08-03T02:05:10.902Z,22.40
2018-08-03T02:06:13.808Z,22.37
2018-08-03T02:07:16.678Z,22.37
2018-08-03T02:08:20.177Z,22.35
2018-08-03T02:09:24.576Z,22.25
2018-08-03T02:10:27.652Z,22.17
2018-08-03T02:11:31.545Z,22.12
2018-08-03T02:12:35.778Z,22.09
2018-08-03T02:13:38.671Z,21.90
2018-08-03T02:14:42.245Z,21.89
2018-08-03T02:15:45.110Z,22.04
2018-08-03T02:16:47.982Z,22.17
2018-08-03T02:17:51.341Z,22.21
2018-08-03T02:18:54.298Z,22.24
2018-08-03T02:19:57.222Z,22.21
2018-08-03T02:21:00.175Z,22.23
2018-08-03T02:22:03.043Z,22.12
2018-08-03T02:23:05.990Z,22.20
2018-08-03T02:24:09.351Z,22.15
2018-08-03T02:25:12.244Z,22.13
2018-08-03T02:26:15.104Z,22.06
2018-08-03T02:27:18.050Z,22.01
2018-08-03T02:28:21.076Z,21.99
2018-08-03T02:29:24.520Z,22.07
2018-08-03T02:30:27.439Z,22.11
2018-08-03T02:31:30.477Z,22.09
2018-08-03T02:32:33.458Z,22.16
2018-08-03T02:33:36.463Z,22.22
2018-08-03T02:34:39.444Z,22.18
2018-08-03T02:35:42.311Z,22.07
2018-08-03T02:36:45.458Z,21.93
2018-08-03T02:37:48.359Z,21.89
2018-08-03T02:38:52.112Z,21.88
2018-08-03T02:39:54.955Z,21.70
2018-08-03T02:40:57.837Z,21.71
2018-08-03T02:42:00.699Z,21.80
2018-08-03T02:43:03.569Z,21.91
2018-08-03T02:44:06.660Z,22.05
2018-08-03T02:46:12.097Z,21.97
2018-08-03T02:47:14.968Z,21.96
2018-08-03T02:48:18.138Z,21.98
2018-08-03T02:49:21.070Z,21.68
2018-08-03T02:50:24.756Z,21.60
2018-08-03T02:51:27.613Z,21.72
2018-08-03T02:52:30.488Z,21.72
2018-08-03T02:53:33.377Z,21.42
2018-08-03T02:54:36.571Z,21.22
2018-08-03T02:55:39.437Z,21.40
2018-08-03T02:56:42.307Z,21.69
2018-08-03T02:57:45.321Z,21.81
2018-08-03T02:58:48.207Z,21.82
2018-08-03T02:59:51.049Z,21.49
2018-08-03T03:00:54.231Z,21.41
2018-08-03T03:01:57.097Z,21.48
2018-08-03T03:02:59.941Z,21.57
2018-08-03T03:04:02.799Z,21.71
2018-08-03T03:05:05.678Z,21.85
2018-08-03T03:06:08.570Z,21.81
2018-08-03T03:07:11.925Z,21.80
2018-08-03T03:08:15.620Z,21.73
2018-08-03T03:09:18.699Z,21.74
2018-08-03T03:10:21.541Z,21.73
2018-08-03T03:11:24.438Z,21.68
2018-08-03T03:12:27.280Z,21.57
2018-08-03T03:13:30.153Z,21.68
2018-08-03T03:14:33.249Z,21.75
2018-08-03T03:15:36.113Z,21.69
2018-08-03T03:16:38.988Z,21.65
2018-08-03T03:17:41.844Z,21.69
2018-08-03T03:18:44.755Z,21.69
2018-08-03T03:19:48.007Z,21.69
2018-08-03T03:20:50.909Z,21.65
2018-08-03T03:21:53.810Z,21.59
2018-08-03T03:22:56.656Z,21.68
2018-08-03T03:23:59.497Z,21.63
2018-08-03T03:25:02.478Z,21.73
2018-08-03T03:26:05.629Z,21.92
2018-08-03T03:27:08.451Z,22.04
2018-08-03T03:28:11.296Z,21.87
2018-08-03T03:29:14.151Z,21.90
2018-08-03T03:30:17.099Z,21.87
2018-08-03T03:31:19.956Z,21.91
2018-08-03T03:32:22.899Z,21.89
2018-08-03T03:33:25.881Z,21.74
2018-08-03T03:34:29.565Z,21.63
2018-08-03T03:50:18.674Z,20.96
2018-08-03T03:51:22.461Z,21.03
2018-08-03T03:52:26.291Z,21.14
2018-08-03T03:53:30.085Z,21.18
2018-08-03T03:54:33.908Z,21.18
2018-08-03T03:55:38.148Z,21.16
2018-08-03T03:56:42.077Z,21.20
2018-08-03T03:57:45.884Z,21.24
2018-08-03T03:58:49.694Z,21.11
2018-08-03T03:59:53.544Z,20.97
2018-08-03T04:00:57.333Z,20.92
2018-08-03T04:02:01.645Z,20.84
2018-08-03T04:03:04.541Z,20.88
2018-08-03T04:04:07.403Z,20.97
2018-08-03T04:05:10.367Z,21.15
2018-08-03T04:06:13.225Z,21.35
2018-08-03T04:07:16.073Z,21.33
2018-08-03T04:08:18.932Z,21.40
2018-08-03T04:09:21.874Z,21.44
2018-08-03T04:10:24.739Z,21.30
2018-08-03T04:11:28.158Z,21.16
2018-08-03T04:12:32.262Z,21.15
2018-08-03T04:13:36.377Z,21.19
2018-08-03T04:14:39.285Z,21.19
2018-08-03T04:15:42.664Z,21.19
2018-08-03T04:16:46.499Z,21.27
2018-08-03T04:17:49.333Z,21.24
2018-08-03T04:18:52.845Z,21.11
2018-08-03T04:19:56.561Z,20.97
2018-08-03T04:20:59.431Z,21.03
2018-08-03T04:22:02.903Z,21.09
2018-08-03T04:23:06.051Z,21.13
2018-08-03T04:24:09.898Z,21.18
2018-08-03T04:25:12.985Z,21.06
2018-08-03T04:26:15.897Z,21.07
2018-08-03T04:27:19.454Z,21.09
2018-08-03T04:28:22.353Z,21.13
2018-08-03T04:29:25.204Z,21.09
2018-08-03T04:30:28.050Z,21.09
2018-08-03T04:31:31.250Z,21.11
2018-08-03T04:32:34.141Z,21.17
2018-08-03T04:33:37.073Z,21.20
2018-08-03T04:34:40.052Z,21.19
2018-08-03T04:35:42.924Z,21.22
2018-08-03T04:36:45.787Z,21.14
2018-08-03T04:37:49.044Z,21.17
2018-08-03T04:38:52.617Z,21.20
2018-08-03T04:39:56.094Z,21.18
2018-08-03T04:40:58.991Z,21.08
2018-08-03T04:42:01.907Z,20.96
2018-08-03T04:43:04.899Z,20.89
2018-08-03T04:44:10.608Z,20.99
2018-08-03T04:45:13.676Z,20.73
2018-08-03T04:46:16.626Z,20.83
2018-08-03T04:47:19.503Z,20.89
2018-08-03T04:48:22.430Z,20.84
2018-08-03T04:49:26.363Z,20.70
2018-08-03T04:50:29.540Z,20.77
2018-08-03T04:51:32.454Z,20.82
2018-08-03T04:52:35.323Z,20.79
2018-08-03T04:53:38.221Z,20.76
2018-08-03T04:54:41.140Z,20.76
2018-08-03T04:55:44.356Z,20.86
2018-08-03T04:56:47.558Z,20.71
2018-08-03T04:57:51.136Z,20.76
2018-08-03T04:58:54.855Z,20.90
2018-08-03T04:59:57.752Z,21.09
2018-08-03T05:01:01.288Z,21.19
2018-08-03T05:02:04.261Z,21.28
2018-08-03T05:03:07.782Z,21.20
2018-08-03T05:04:11.190Z,21.15
2018-08-03T05:05:14.739Z,21.02
2018-08-03T05:06:17.803Z,20.88
2018-08-03T05:07:20.678Z,20.82
2018-08-03T05:08:23.772Z,20.95
2018-08-03T05:09:27.763Z,21.21
2018-08-03T05:10:30.630Z,21.34
2018-08-03T05:11:34.517Z,21.38
2018-08-03T05:12:37.732Z,21.33
2018-08-03T05:13:40.619Z,21.49
2018-08-03T05:14:43.533Z,21.46
2018-08-03T05:15:46.715Z,21.26
2018-08-03T05:16:50.113Z,21.24
2018-08-03T05:17:52.996Z,21.42
2018-08-03T05:18:55.913Z,21.62
2018-08-03T05:19:58.763Z,21.51
2018-08-03T05:21:01.635Z,21.48
2018-08-03T05:22:04.812Z,21.52
2018-08-03T05:23:08.360Z,21.64
2018-08-03T05:24:11.280Z,21.68
2018-08-03T05:25:14.208Z,21.70
2018-08-03T05:26:17.135Z,21.64
2018-08-03T05:27:21.703Z,21.70
2018-08-03T05:28:25.587Z,21.73
2018-08-03T05:29:28.460Z,21.51
2018-08-03T05:30:31.369Z,21.49
2018-08-03T05:31:34.251Z,21.56
2018-08-03T05:32:37.081Z,21.23
2018-08-03T05:33:40.391Z,21.20
2018-08-03T05:34:44.225Z,21.46
2018-08-03T05:35:47.203Z,21.41
2018-08-03T05:36:50.373Z,21.43
2018-08-03T05:37:53.889Z,21.48
2018-08-03T05:38:56.808Z,21.56
2018-08-03T05:40:00.000Z,21.54
2018-08-03T05:41:04.124Z,21.65
2018-08-03T05:42:07.012Z,21.78
2018-08-03T05:43:09.853Z,21.63
2018-08-03T05:44:12.714Z,21.60
2018-08-03T05:45:16.731Z,21.66
2018-08-03T05:46:21.667Z,21.60
2018-08-03T05:47:24.508Z,21.66
2018-08-03T05:48:28.570Z,21.85
2018-08-03T05:49:31.435Z,21.96
2018-08-03T05:50:34.299Z,22.07
2018-08-03T05:51:37.807Z,22.14
2018-08-03T05:52:41.082Z,22.03
2018-08-03T05:53:43.946Z,22.15
2018-08-03T05:54:46.968Z,22.26
2018-08-03T05:55:49.887Z,22.42
2018-08-03T05:56:52.751Z,22.34
2018-08-03T05:57:55.687Z,22.22
2018-08-03T05:58:58.921Z,22.27
2018-08-03T06:00:01.800Z,22.18
2018-08-03T06:01:04.789Z,22.30
2018-08-03T06:02:08.165Z,22.49
2018-08-03T06:03:11.023Z,22.58
2018-08-03T06:04:15.621Z,22.43
2018-08-03T06:05:19.871Z,22.42
2018-08-03T06:06:22.749Z,22.49
2018-08-03T06:07:25.636Z,22.51
2018-08-03T06:08:28.800Z,22.60
2018-08-03T06:09:31.673Z,22.82
2018-08-03T06:10:34.583Z,22.96
2018-08-03T06:11:37.697Z,23.16
2018-08-03T06:12:40.650Z,23.28
2018-08-03T06:13:44.700Z,23.18
2018-08-03T06:14:48.010Z,23.10
2018-08-03T06:15:51.629Z,23.07
2018-08-03T06:16:54.552Z,22.88
2018-08-03T06:17:58.770Z,22.90
2018-08-03T06:19:01.949Z,23.03
2018-08-03T06:20:04.934Z,23.10
2018-08-03T06:21:07.824Z,22.87
2018-08-03T06:22:10.715Z,22.85
2018-08-03T06:23:13.821Z,22.83
2018-08-03T06:24:18.438Z,22.98
2018-08-03T06:25:21.277Z,23.09
2018-08-03T06:26:24.635Z,23.03
2018-08-03T06:27:27.523Z,23.20
2018-08-03T06:28:30.471Z,23.28
2018-08-03T06:29:33.536Z,23.10
2018-08-03T06:30:36.840Z,23.13
2018-08-03T06:31:39.759Z,23.25
2018-08-03T06:32:42.827Z,23.37
2018-08-03T06:33:45.751Z,23.38
2018-08-03T06:34:48.685Z,23.46
2018-08-03T06:35:51.685Z,23.55
2018-08-03T06:36:55.188Z,23.62
2018-08-03T06:37:58.075Z,23.65
2018-08-03T06:39:00.925Z,23.79
2018-08-03T06:40:04.459Z,24.02
2018-08-03T06:41:07.709Z,24.15
2018-08-03T06:42:10.575Z,24.12
2018-08-03T06:43:13.816Z,24.26
2018-08-03T06:44:16.686Z,24.25
2018-08-03T06:45:19.636Z,24.43
2018-08-03T06:46:22.527Z,24.54
2018-08-03T06:47:25.398Z,24.65
2018-08-03T06:48:28.387Z,24.34
2018-08-03T06:49:31.794Z,24.48
2018-08-03T06:50:36.242Z,24.33
2018-08-03T06:51:39.147Z,24.59
2018-08-03T06:52:42.778Z,24.80
2018-08-03T06:53:47.031Z,24.81
2018-08-03T06:54:49.947Z,25.05
2018-08-03T06:55:53.125Z,25.19
2018-08-03T06:56:56.013Z,25.37
2018-08-03T06:57:59.943Z,25.39
2018-08-03T06:59:02.899Z,25.53
2018-08-03T07:00:05.818Z,25.63
2018-08-03T07:01:08.740Z,25.73
2018-08-03T07:02:12.125Z,25.81
2018-08-03T07:03:15.073Z,26.06
2018-08-03T07:04:19.231Z,26.23
2018-08-03T07:05:22.158Z,26.28
2018-08-03T07:06:26.315Z,26.42
2018-08-03T07:07:29.283Z,26.79
2018-08-03T07:08:32.441Z,27.07
2018-08-03T07:09:35.332Z,27.02
2018-08-03T07:10:38.308Z,27.01
2018-08-03T07:11:41.242Z,27.15
2018-08-03T07:12:44.113Z,27.18
2018-08-03T07:13:48.512Z,27.07
2018-08-03T07:14:51.770Z,27.20
2018-08-03T07:15:56.572Z,27.20
2018-08-03T07:16:59.485Z,27.13
2018-08-03T07:18:03.373Z,27.19
2018-08-03T07:19:06.225Z,27.29
2018-08-03T07:20:09.327Z,27.49
2018-08-03T07:21:14.230Z,27.28
2018-08-03T07:22:17.659Z,27.26
2018-08-03T07:23:20.888Z,27.57
2018-08-03T07:24:23.792Z,27.54
2018-08-03T07:25:26.733Z,27.43
2018-08-03T07:26:29.657Z,27.60
2018-08-03T07:27:33.798Z,27.98
2018-08-03T07:28:36.672Z,27.82
2018-08-03T07:29:41.552Z,27.47
2018-08-03T07:30:44.421Z,27.72
2018-08-03T07:31:47.391Z,27.81
2018-08-03T07:32:50.260Z,27.89
2018-08-03T07:33:53.436Z,28.07
2018-08-03T07:34:56.345Z,28.34
2018-08-03T07:36:00.467Z,28.36
2018-08-03T07:37:03.466Z,28.44
2018-08-03T07:38:06.290Z,28.69
2018-08-03T07:39:09.489Z,28.97
2018-08-03T07:40:13.545Z,28.95
2018-08-03T07:41:16.424Z,29.31
2018-08-03T07:42:19.331Z,29.15
2018-08-03T07:43:22.377Z,28.96
2018-08-03T07:44:26.584Z,29.05
2018-08-03T07:45:29.454Z,29.30
2018-08-03T07:46:32.339Z,29.26
2018-08-03T07:47:35.212Z,28.93
2018-08-03T07:48:40.621Z,29.05
2018-08-03T07:49:43.560Z,29.21
2018-08-03T07:50:46.460Z,29.01
2018-08-03T07:51:49.487Z,29.61
2018-08-03T07:52:52.730Z,29.75
2018-08-03T07:53:57.355Z,29.80
2018-08-03T07:55:00.263Z,29.74
2018-08-03T07:56:03.602Z,29.82
2018-08-03T07:57:06.534Z,30.11
2018-08-03T07:58:10.027Z,30.62
2018-08-03T07:59:13.841Z,30.55
2018-08-03T08:00:16.745Z,30.18
2018-08-03T08:01:19.761Z,29.97
2018-08-03T08:02:23.330Z,30.11
2018-08-03T08:03:26.316Z,30.18
2018-08-03T08:04:30.731Z,30.41
2018-08-03T08:05:34.034Z,30.06
2018-08-03T08:07:56.756Z,30.87
2018-08-03T08:09:00.340Z,30.76
2018-08-03T08:10:03.629Z,31.03
2018-08-03T08:11:07.376Z,31.41
2018-08-03T08:12:10.830Z,31.54
2018-08-03T08:13:15.970Z,31.44
2018-08-03T08:14:19.691Z,30.83
2018-08-03T08:15:22.624Z,30.88
2018-08-03T08:16:26.375Z,30.70
2018-08-03T08:17:30.587Z,30.41
2018-08-03T08:18:34.955Z,30.32
2018-08-03T08:19:39.272Z,30.69
2018-08-03T08:20:42.271Z,30.74
2018-08-03T08:21:45.161Z,31.30
2018-08-03T08:22:48.267Z,31.18
2018-08-03T08:23:51.272Z,31.37
2018-08-03T08:24:56.777Z,31.41
2018-08-03T08:25:59.733Z,31.14
2018-08-03T08:27:03.244Z,30.76
2018-08-03T08:28:06.321Z,30.80
2018-08-03T08:29:09.257Z,31.02
2018-08-03T08:30:13.250Z,31.28
2018-08-03T08:31:19.674Z,31.49
2018-08-03T08:32:22.850Z,31.62
2018-08-03T08:33:27.750Z,31.69
2018-08-03T08:35:44.414Z,32.85
2018-08-03T08:36:47.519Z,32.79
2018-08-03T08:37:51.464Z,32.98
2018-08-03T08:38:54.391Z,32.90
2018-08-03T08:39:57.366Z,32.58
2018-08-03T08:41:00.297Z,32.85
2018-08-03T08:42:03.209Z,33.28
2018-08-03T08:43:06.820Z,33.25
2018-08-03T08:44:11.256Z,32.77
2018-08-03T08:45:15.017Z,33.32
2018-08-03T08:46:18.539Z,32.62
2018-08-03T08:47:22.004Z,32.06
2018-08-03T08:48:26.130Z,31.64
2018-08-03T08:49:34.379Z,31.41
2018-08-03T08:50:38.003Z,31.61
2018-08-03T08:51:41.583Z,31.73
2018-08-03T08:52:45.388Z,32.28
2018-08-03T08:53:49.906Z,32.64
2018-08-03T08:54:53.099Z,32.86
2018-08-03T08:55:57.103Z,33.05
2018-08-03T08:57:00.025Z,33.35
2018-08-03T08:58:03.516Z,33.30
2018-08-03T08:59:07.273Z,33.53
2018-08-03T09:00:10.212Z,33.48
2018-08-03T09:01:14.583Z,33.38
2018-08-03T09:02:18.656Z,33.18
2018-08-03T09:03:25.449Z,33.09
2018-08-03T09:04:28.384Z,32.73
2018-08-03T09:05:32.466Z,32.40
2018-08-03T09:06:35.406Z,32.57
2018-08-03T09:07:40.195Z,32.26
2018-08-03T09:08:43.597Z,31.95
2018-08-03T09:09:49.340Z,32.06
2018-08-03T09:10:52.310Z,32.26
2018-08-03T09:11:57.169Z,32.29
2018-08-03T09:13:00.097Z,32.69
2018-08-03T09:14:04.696Z,33.07
2018-08-03T09:15:08.192Z,32.89
2018-08-03T09:16:12.401Z,32.97
2018-08-03T09:17:16.310Z,32.97
2018-08-03T09:18:19.877Z,33.30
2018-08-03T09:19:23.360Z,33.75
2018-08-03T09:20:26.307Z,33.83
2018-08-03T09:21:31.277Z,33.46
2018-08-03T09:22:34.224Z,33.59
2018-08-03T09:23:37.589Z,33.76
2018-08-03T09:24:43.586Z,33.95
2018-08-03T09:25:46.513Z,33.87
2018-08-03T09:26:51.720Z,34.17
2018-08-03T09:27:56.482Z,34.46
2018-08-03T09:30:12.380Z,34.11
2018-08-03T09:31:16.924Z,34.42
2018-08-03T09:32:21.055Z,34.27
2018-08-03T09:33:24.641Z,33.67
2018-08-03T09:34:34.247Z,33.66
2018-08-03T09:35:37.135Z,33.86
2018-08-03T09:36:40.065Z,33.55
2018-08-03T09:37:45.967Z,33.34
2018-08-03T09:38:50.010Z,33.81
2018-08-03T09:39:54.345Z,34.26
2018-08-03T09:40:58.135Z,33.82
2018-08-03T09:42:01.943Z,33.15
2018-08-03T09:43:05.062Z,32.49
2018-08-03T09:44:10.352Z,32.70
2018-08-03T09:45:14.644Z,33.03
2018-08-03T09:46:17.610Z,33.08
2018-08-03T09:47:20.764Z,33.50
2018-08-03T09:48:24.520Z,33.78
2018-08-03T10:05:47.242Z,35.40
2018-08-03T10:06:50.251Z,35.36
2018-08-03T10:07:53.173Z,35.37
2018-08-03T10:08:56.712Z,35.55
2018-08-03T10:10:01.847Z,35.46
2018-08-03T10:11:05.190Z,35.67
2018-08-03T10:12:13.313Z,34.29
2018-08-03T10:13:18.716Z,33.71
2018-08-03T10:14:22.365Z,33.30
2018-08-03T10:15:25.883Z,33.25
2018-08-03T10:17:38.344Z,33.86
2018-08-03T10:18:41.232Z,34.08
2018-08-03T10:19:46.099Z,33.65
2018-08-03T10:20:49.074Z,33.11
2018-08-03T10:21:53.573Z,33.04
2018-08-03T10:22:56.805Z,33.15
2018-08-03T10:24:00.388Z,33.36
2018-08-03T10:25:03.248Z,33.26
2018-08-03T10:26:07.291Z,33.36
2018-08-03T10:27:10.261Z,33.92
2018-08-03T10:28:14.599Z,34.22
2018-08-03T10:29:17.873Z,34.20
2018-08-03T10:30:21.835Z,33.43
2018-08-03T10:31:24.725Z,32.96
2018-08-03T10:32:28.484Z,33.00
2018-08-03T10:33:31.424Z,32.99
2018-08-03T10:34:34.449Z,33.05
2018-08-03T10:35:37.670Z,33.30
2018-08-03T10:36:41.147Z,33.32
2018-08-03T10:37:44.563Z,33.53
2018-08-03T10:38:48.427Z,33.21
2018-08-03T10:39:52.533Z,33.56
2018-08-03T10:40:58.394Z,33.96
2018-08-03T10:42:02.458Z,33.55
2018-08-03T10:43:05.536Z,33.39
2018-08-03T10:44:09.080Z,33.18
2018-08-03T10:45:13.895Z,33.27
2018-08-03T10:46:17.545Z,33.61
2018-08-03T10:47:21.571Z,33.75
2018-08-03T10:48:24.508Z,33.62
2018-08-03T10:49:29.634Z,33.97
2018-08-03T10:50:33.757Z,34.03
2018-08-03T10:51:38.369Z,34.17
2018-08-03T10:52:43.388Z,34.52
2018-08-03T10:53:46.577Z,34.66
2018-08-03T10:54:50.314Z,35.13
2018-08-03T10:55:53.239Z,35.52
2018-08-03T10:56:56.093Z,35.99
2018-08-03T10:57:59.026Z,36.04
2018-08-03T10:59:02.467Z,35.95
2018-08-03T11:00:05.703Z,35.71
2018-08-03T11:01:09.589Z,35.62
2018-08-03T11:02:13.410Z,35.39
2018-08-03T11:03:19.938Z,35.20
2018-08-03T11:04:22.998Z,34.98
2018-08-03T11:05:27.448Z,34.84
2018-08-03T11:06:31.265Z,34.64
2018-08-03T11:07:34.167Z,34.57
2018-08-03T11:08:37.299Z,34.52
2018-08-03T11:09:40.833Z,34.62
2018-08-03T11:10:44.739Z,34.86
2018-08-03T11:11:47.683Z,34.94
2018-08-03T11:12:52.393Z,35.17
2018-08-03T11:13:56.579Z,35.57
2018-08-03T11:14:59.519Z,35.60
2018-08-03T11:16:03.926Z,35.22
2018-08-03T11:17:07.859Z,34.59
2018-08-03T11:18:11.357Z,34.94
2018-08-03T11:19:15.223Z,35.50
2018-08-03T11:20:19.226Z,35.88
2018-08-03T11:21:25.268Z,35.92
2018-08-03T11:22:28.139Z,35.90
2018-08-03T11:23:32.468Z,35.83
2018-08-03T11:24:35.366Z,36.13
2018-08-03T11:25:38.607Z,36.24
2018-08-03T11:26:41.470Z,36.25
2018-08-03T11:27:44.349Z,36.58
2018-08-03T11:28:47.239Z,36.78
2018-08-03T11:29:51.430Z,36.76
2018-08-03T11:30:54.647Z,36.82
2018-08-03T11:31:58.893Z,36.75
2018-08-03T11:33:02.449Z,36.82
2018-08-03T11:34:07.227Z,36.85
2018-08-03T11:35:10.761Z,37.02
2018-08-03T11:36:15.230Z,37.00
2018-08-03T11:37:20.110Z,36.96
2018-08-03T11:38:24.384Z,36.98
2018-08-03T11:39:27.249Z,36.71
2018-08-03T11:40:30.131Z,36.26
2018-08-03T11:41:33.417Z,36.17
2018-08-03T11:42:38.283Z,35.55
2018-08-03T11:43:41.172Z,35.95
2018-08-03T11:44:48.682Z,35.62
2018-08-03T11:45:51.743Z,35.48
2018-08-03T11:46:55.186Z,35.60
2018-08-03T11:47:59.497Z,35.07
2018-08-03T11:49:03.219Z,35.17
2018-08-03T11:50:07.091Z,35.22
2018-08-03T11:51:11.204Z,35.54
2018-08-03T11:52:15.681Z,35.80
2018-08-03T11:53:23.178Z,36.27
2018-08-03T11:54:26.098Z,35.09
2018-08-03T11:55:34.295Z,35.21
2018-08-03T11:56:37.231Z,35.34
2018-08-03T11:57:40.656Z,35.43
2018-08-03T11:58:44.035Z,35.01
2018-08-03T11:59:48.246Z,35.31
2018-08-03T12:00:52.120Z,35.29
2018-08-03T12:01:55.039Z,35.85
2018-08-03T12:02:58.128Z,36.64
2018-08-03T12:04:01.375Z,36.73
2018-08-03T12:05:04.895Z,36.32
2018-08-03T12:06:08.432Z,36.38
2018-08-03T12:07:11.366Z,36.68
2018-08-03T12:08:15.243Z,37.05
2018-08-03T12:09:19.699Z,37.18
2018-08-03T12:10:24.202Z,37.13
2018-08-03T12:11:27.413Z,37.08
2018-08-03T12:12:31.160Z,37.44
2018-08-03T12:13:35.349Z,37.55
2018-08-03T12:14:38.432Z,37.07
2018-08-03T12:15:41.334Z,36.85
2018-08-03T12:16:44.669Z,36.78
2018-08-03T12:17:48.718Z,36.19
2018-08-03T12:18:52.593Z,35.21
2018-08-03T12:19:56.331Z,35.07
2018-08-03T12:20:59.235Z,35.48
2018-08-03T12:22:02.110Z,35.43
2018-08-03T12:23:05.355Z,34.79
2018-08-03T12:24:09.789Z,34.93
2018-08-03T12:25:12.723Z,35.10
2018-08-03T12:26:15.633Z,34.46
2018-08-03T12:27:18.489Z,34.07
2018-08-03T12:28:22.520Z,34.24
2018-08-03T12:29:26.780Z,34.63
2018-08-03T12:30:29.803Z,34.70
2018-08-03T12:31:32.875Z,34.94
2018-08-03T12:32:36.321Z,34.96
2018-08-03T12:33:40.077Z,34.94
2018-08-03T12:34:42.999Z,34.67
2018-08-03T12:35:46.292Z,34.21
2018-08-03T12:36:50.263Z,34.37
2018-08-03T12:39:05.371Z,34.46
2018-08-03T12:40:08.943Z,34.62
2018-08-03T12:41:12.434Z,34.66
2018-08-03T12:42:16.946Z,34.60
2018-08-03T12:43:19.846Z,34.43
2018-08-03T12:44:26.473Z,34.40
2018-08-03T12:45:33.995Z,34.46
2018-08-03T12:46:34.343Z,34.60
2018-08-03T12:47:40.463Z,34.59
2018-08-03T12:48:44.658Z,34.39
2018-08-03T12:49:49.232Z,34.44
2018-08-03T12:52:00.484Z,34.24
2018-08-03T12:53:05.816Z,34.16
2018-08-03T12:54:08.757Z,34.36
2018-08-03T12:55:12.764Z,34.70
2018-08-03T12:56:17.097Z,35.23
2018-08-03T12:57:20.038Z,35.81
2018-08-03T12:58:24.419Z,36.29
2018-08-03T12:59:28.522Z,36.41
2018-08-03T13:00:31.838Z,36.70
2018-08-03T13:01:36.438Z,36.83
2018-08-03T13:02:39.576Z,36.97
2018-08-03T13:03:42.466Z,37.04
2018-08-03T13:04:47.366Z,36.83
2018-08-03T13:05:51.464Z,36.42
2018-08-03T13:06:54.348Z,35.58
2018-08-03T13:07:57.639Z,36.10
2018-08-03T13:09:01.179Z,36.44
2018-08-03T13:10:04.097Z,35.74
2018-08-03T13:11:07.012Z,34.53
2018-08-03T13:12:10.617Z,34.12
2018-08-03T13:13:13.960Z,34.30
2018-08-03T13:14:16.950Z,34.75
2018-08-03T13:15:19.850Z,34.58
2018-08-03T13:16:22.761Z,34.70
2018-08-03T13:17:26.865Z,34.97
2018-08-03T13:18:29.769Z,34.96
2018-08-03T13:19:34.407Z,35.56
2018-08-03T13:20:38.256Z,35.55
2018-08-03T13:21:42.199Z,35.56
2018-08-03T13:22:45.107Z,35.04
2018-08-03T13:23:48.845Z,34.66
2018-08-03T13:24:53.709Z,34.70
2018-08-03T13:26:00.449Z,34.80
2018-08-03T13:27:03.635Z,35.15
2018-08-03T13:28:06.558Z,34.88
2018-08-03T13:29:09.698Z,34.76
2018-08-03T13:30:12.713Z,34.53
2018-08-03T13:31:15.618Z,34.73
2018-08-03T13:32:18.540Z,35.46
2018-08-03T13:33:23.449Z,35.16
2018-08-03T13:34:26.441Z,34.56
2018-08-03T13:35:29.379Z,35.20
2018-08-03T13:36:32.714Z,35.82
2018-08-03T13:37:36.595Z,36.64
2018-08-03T13:38:40.375Z,37.10
2018-08-03T13:39:44.174Z,37.31
2018-08-03T13:40:47.819Z,37.34
2018-08-03T13:41:52.001Z,37.18
2018-08-03T13:42:54.920Z,37.32
2018-08-03T13:43:57.803Z,37.38
2018-08-03T13:45:00.801Z,37.65
2018-08-03T13:46:05.548Z,37.54
2018-08-03T13:47:08.488Z,37.43
2018-08-03T13:48:11.546Z,37.58
2018-08-03T13:49:14.567Z,37.40
2018-08-03T13:50:17.521Z,37.34
2018-08-03T13:51:20.955Z,37.51
2018-08-03T13:52:24.822Z,37.70
2018-08-03T13:53:27.703Z,37.53
2018-08-03T13:54:31.498Z,37.60
2018-08-03T13:55:34.477Z,37.92
2018-08-03T13:56:37.352Z,38.30
2018-08-03T13:57:40.349Z,39.11
2018-08-03T13:58:46.615Z,38.88
2018-08-03T13:59:51.707Z,38.88
2018-08-03T14:00:54.580Z,39.16
2018-08-03T14:01:58.321Z,39.32
2018-08-03T14:03:03.057Z,39.37
2018-08-03T14:04:06.636Z,39.30
2018-08-03T14:05:09.848Z,39.41
2018-08-03T14:06:12.769Z,39.36
2018-08-03T14:07:15.642Z,39.58
2018-08-03T14:08:18.589Z,39.00
2018-08-03T14:09:22.413Z,38.76
2018-08-03T14:10:26.835Z,38.69
2018-08-03T14:11:32.636Z,39.36
2018-08-03T14:12:35.847Z,39.60
2018-08-03T14:13:39.339Z,39.73
2018-08-03T14:14:42.798Z,39.85
2018-08-03T14:15:46.081Z,39.45
2018-08-03T14:16:48.955Z,37.94